KLM777 EDDF-EGLL
Flight info
| Callsign | KLM777 |
|---|---|
| Flight time | N/A |
| Altitude | 40000 |
| Route | OBOKA5G/25C OBOKA Z29 TORNU DCT ABNED L980 LOGAN |
| Aircraft | A359/H-SDE2E3GHIJ3J4J5LM1ORWXY/LB1D1 |
Departure
| Time | 2026-05-05 11:07 |
|---|---|
| Airport | Frankfurt Main Airport (EDDF) |
Arrival
| Time | N/A |
|---|---|
| Airport | London Heathrow Airport (EGLL) |
| Time | Latitude | Longitude | Altitude | Speed | Heading |
|---|---|---|---|---|---|
| 2026-05-05 11:02 | 50.04635 | 8.58765 | 360 ft | 3 kts | 187° |
| 2026-05-05 11:03 | 50.04649 | 8.58766 | 356 ft | 0 kts | 181° |
| 2026-05-05 11:05 | 50.04605 | 8.58733 | 361 ft | 5 kts | 218° |
| 2026-05-05 11:05 | 50.04578 | 8.58701 | 359 ft | 8 kts | 217° |
| 2026-05-05 11:05 | 50.04525 | 8.58637 | 360 ft | 12 kts | 220° |
| 2026-05-05 11:05 | 50.04488 | 8.58565 | 357 ft | 5 kts | 239° |
| 2026-05-05 11:06 | 50.04466 | 8.58491 | 358 ft | 10 kts | 246° |
| 2026-05-05 11:06 | 50.04376 | 8.58118 | 358 ft | 76 kts | 250° |
| 2026-05-05 11:06 | 50.04117 | 8.56977 | 359 ft | 145 kts | 251° |
| 2026-05-05 11:06 | 50.03666 | 8.55279 | 481 ft | 188 kts | 254° |
| 2026-05-05 11:07 | 50.03168 | 8.53213 | 512 ft | 230 kts | 250° |
| 2026-05-05 11:07 | 50.02608 | 8.50865 | 1615 ft | 228 kts | 251° |
| 2026-05-05 11:07 | 50.02110 | 8.48600 | 2836 ft | 214 kts | 253° |
| 2026-05-05 11:07 | 50.01861 | 8.46364 | 3812 ft | 209 kts | 268° |
| 2026-05-05 11:08 | 50.02112 | 8.44161 | 4631 ft | 213 kts | 292° |
| 2026-05-05 11:08 | 50.03027 | 8.42341 | 5403 ft | 219 kts | 324° |
| 2026-05-05 11:08 | 50.04390 | 8.41179 | 6034 ft | 233 kts | 326° |
| 2026-05-05 11:08 | 50.05446 | 8.39143 | 6359 ft | 257 kts | 291° |
| 2026-05-05 11:09 | 50.05718 | 8.36295 | 6752 ft | 279 kts | 269° |
| 2026-05-05 11:09 | 50.05648 | 8.33155 | 7175 ft | 301 kts | 268° |
| 2026-05-05 11:09 | 50.05601 | 8.29790 | 7664 ft | 318 kts | 269° |
| 2026-05-05 11:09 | 50.05621 | 8.26302 | 8401 ft | 326 kts | 270° |
| 2026-05-05 11:10 | 50.05681 | 8.22749 | 9236 ft | 331 kts | 271° |
| 2026-05-05 11:10 | 50.05767 | 8.19133 | 10041 ft | 336 kts | 271° |
| 2026-05-05 11:10 | 50.05891 | 8.15486 | 10802 ft | 339 kts | 275° |
| 2026-05-05 11:10 | 50.06413 | 8.11939 | 11497 ft | 345 kts | 291° |
| 2026-05-05 11:11 | 50.07650 | 8.08705 | 12152 ft | 351 kts | 306° |
| 2026-05-05 11:11 | 50.09177 | 8.05699 | 12800 ft | 356 kts | 308° |
| 2026-05-05 11:11 | 50.10755 | 8.02706 | 13454 ft | 359 kts | 308° |
| 2026-05-05 11:11 | 50.12345 | 7.99676 | 14043 ft | 363 kts | 308° |
| 2026-05-05 11:12 | 50.13942 | 7.96605 | 14599 ft | 366 kts | 308° |
| 2026-05-05 11:12 | 50.15549 | 7.93493 | 15174 ft | 370 kts | 307° |
| 2026-05-05 11:12 | 50.17167 | 7.90347 | 15765 ft | 373 kts | 307° |
| 2026-05-05 11:12 | 50.18798 | 7.87166 | 16340 ft | 377 kts | 307° |
| 2026-05-05 11:13 | 50.20445 | 7.83948 | 16913 ft | 380 kts | 307° |
| 2026-05-05 11:13 | 50.22101 | 7.80707 | 17483 ft | 384 kts | 307° |
| 2026-05-05 11:13 | 50.23782 | 7.77440 | 18051 ft | 387 kts | 308° |
| 2026-05-05 11:13 | 50.25671 | 7.74471 | 18547 ft | 394 kts | 320° |
| 2026-05-05 11:14 | 50.28016 | 7.72206 | 19040 ft | 399 kts | 333° |
| 2026-05-05 11:14 | 50.30562 | 7.70393 | 19529 ft | 404 kts | 335° |
| 2026-05-05 11:14 | 50.33154 | 7.68651 | 20017 ft | 407 kts | 336° |
| 2026-05-05 11:14 | 50.35767 | 7.66894 | 20516 ft | 409 kts | 335° |
| 2026-05-05 11:15 | 50.38394 | 7.65114 | 21024 ft | 412 kts | 335° |
| 2026-05-05 11:15 | 50.41027 | 7.63317 | 21506 ft | 414 kts | 335° |
| 2026-05-05 11:15 | 50.43676 | 7.61503 | 21992 ft | 417 kts | 335° |
| 2026-05-05 11:15 | 50.46352 | 7.59664 | 22465 ft | 420 kts | 335° |
| 2026-05-05 11:16 | 50.49043 | 7.57812 | 22907 ft | 424 kts | 335° |
| 2026-05-05 11:16 | 50.51750 | 7.55944 | 23370 ft | 426 kts | 335° |
| 2026-05-05 11:16 | 50.54440 | 7.54072 | 23761 ft | 429 kts | 334° |
| 2026-05-05 11:16 | 50.57070 | 7.51839 | 24160 ft | 430 kts | 327° |
| 2026-05-05 11:17 | 50.59575 | 7.49343 | 24599 ft | 431 kts | 325° |
| 2026-05-05 11:17 | 50.62095 | 7.46762 | 25031 ft | 433 kts | 325° |
| 2026-05-05 11:17 | 50.64627 | 7.44158 | 25475 ft | 435 kts | 325° |
| 2026-05-05 11:17 | 50.67165 | 7.41548 | 25961 ft | 437 kts | 325° |
| 2026-05-05 11:18 | 50.69715 | 7.38923 | 26450 ft | 439 kts | 324° |
| 2026-05-05 11:18 | 50.72206 | 7.36138 | 26946 ft | 439 kts | 319° |
| 2026-05-05 11:18 | 50.74402 | 7.32797 | 27470 ft | 437 kts | 308° |
| 2026-05-05 11:18 | 50.76167 | 7.28922 | 28026 ft | 434 kts | 298° |
| 2026-05-05 11:19 | 50.77665 | 7.24825 | 28619 ft | 435 kts | 296° |
| 2026-05-05 11:19 | 50.79099 | 7.20599 | 29201 ft | 437 kts | 295° |
| 2026-05-05 11:19 | 50.80492 | 7.16315 | 29780 ft | 440 kts | 294° |
| 2026-05-05 11:19 | 50.81873 | 7.11986 | 30287 ft | 442 kts | 294° |
| 2026-05-05 11:20 | 50.83260 | 7.07625 | 30757 ft | 446 kts | 294° |
| 2026-05-05 11:20 | 50.84661 | 7.03232 | 31253 ft | 448 kts | 294° |
| 2026-05-05 11:20 | 50.86077 | 6.98809 | 31735 ft | 451 kts | 294° |
| 2026-05-05 11:20 | 50.87503 | 6.94366 | 32213 ft | 454 kts | 293° |
| 2026-05-05 11:21 | 50.88939 | 6.89902 | 32685 ft | 456 kts | 293° |
| 2026-05-05 11:21 | 50.90384 | 6.85406 | 33142 ft | 459 kts | 293° |
| 2026-05-05 11:21 | 50.91835 | 6.80888 | 33598 ft | 461 kts | 292° |
| 2026-05-05 11:21 | 50.93292 | 6.76342 | 34044 ft | 463 kts | 293° |
| 2026-05-05 11:22 | 50.94752 | 6.71773 | 34472 ft | 468 kts | 293° |
| 2026-05-05 11:22 | 50.96210 | 6.67203 | 34844 ft | 470 kts | 292° |
| 2026-05-05 11:22 | 50.97685 | 6.62576 | 35332 ft | 470 kts | 293° |
| 2026-05-05 11:22 | 50.99159 | 6.57944 | 35756 ft | 470 kts | 293° |
| 2026-05-05 11:23 | 51.00634 | 6.53298 | 36185 ft | 471 kts | 293° |
| 2026-05-05 11:23 | 51.02108 | 6.48640 | 36604 ft | 472 kts | 293° |
| 2026-05-05 11:23 | 51.03583 | 6.43967 | 37014 ft | 473 kts | 293° |
| 2026-05-05 11:23 | 51.05056 | 6.39295 | 37418 ft | 473 kts | 293° |
| 2026-05-05 11:24 | 51.06531 | 6.34602 | 37844 ft | 474 kts | 294° |
| 2026-05-05 11:24 | 51.07988 | 6.29961 | 38222 ft | 474 kts | 294° |
| 2026-05-05 11:24 | 51.09478 | 6.25205 | 38615 ft | 474 kts | 294° |
| 2026-05-05 11:24 | 51.10948 | 6.20503 | 38943 ft | 474 kts | 294° |
| 2026-05-05 11:25 | 51.12399 | 6.15855 | 39252 ft | 474 kts | 294° |
| 2026-05-05 11:25 | 51.13756 | 6.11080 | 39552 ft | 472 kts | 289° |
| 2026-05-05 11:25 | 51.14773 | 6.06110 | 39810 ft | 472 kts | 285° |
| 2026-05-05 11:26 | 51.16523 | 5.96018 | 39886 ft | 473 kts | 283° |
| 2026-05-05 11:26 | 51.18176 | 5.85836 | 39895 ft | 474 kts | 285° |
| 2026-05-05 11:27 | 51.20460 | 5.76031 | 39895 ft | 476 kts | 290° |